createdAt,value
2022-07-26T00:00:53.074Z,99087.25
2022-07-26T00:03:20.580Z,99082.13
2022-07-26T00:05:48.160Z,99086.41
2022-07-26T00:08:15.765Z,99091.72
2022-07-26T00:10:51.590Z,99091.69
2022-07-26T00:13:21.243Z,99090.91
2022-07-26T00:15:49.628Z,99082.28
2022-07-26T00:18:17.927Z,99088.34
2022-07-26T00:20:45.890Z,99095.31
2022-07-26T00:23:14.664Z,99089.28
2022-07-26T00:25:42.421Z,99088.50
2022-07-26T00:28:10.034Z,99086.78
2022-07-26T00:30:39.722Z,99079.88
2022-07-26T00:33:09.767Z,99080.81
2022-07-26T00:35:37.504Z,99079.13
2022-07-26T00:38:05.019Z,99080.88
2022-07-26T00:40:32.747Z,99086.16
2022-07-26T00:43:02.735Z,99084.44
2022-07-26T00:45:32.847Z,99079.22
2022-07-26T00:48:02.085Z,99074.13
2022-07-26T00:50:29.854Z,99080.16
2022-07-26T00:52:57.383Z,99081.94
2022-07-26T00:55:25.029Z,99068.94
2022-07-26T00:57:52.659Z,99062.91
2022-07-26T01:00:27.828Z,99064.59
2022-07-26T01:02:56.842Z,99071.59
2022-07-26T01:05:25.096Z,99066.41
2022-07-26T01:07:53.702Z,99066.38
2022-07-26T01:10:21.298Z,99068.19
2022-07-26T01:12:49.097Z,99063.88
2022-07-26T01:15:17.418Z,99066.50
2022-07-26T01:17:45.740Z,99065.66
2022-07-26T01:20:14.719Z,99058.78
2022-07-26T01:22:42.317Z,99061.34
2022-07-26T01:25:10.223Z,99062.22
2022-07-26T01:27:41.324Z,99067.41
2022-07-26T01:30:11.515Z,99075.25
2022-07-26T01:32:39.570Z,99071.78
2022-07-26T01:35:07.911Z,99063.22
2022-07-26T01:37:35.515Z,99070.09
2022-07-26T01:40:03.780Z,99069.28
2022-07-26T01:42:32.423Z,99074.44
2022-07-26T01:44:59.905Z,99071.03
2022-07-26T01:47:28.292Z,99065.81
2022-07-26T01:49:55.947Z,99065.81
2022-07-26T01:52:23.467Z,99071.03
2022-07-26T01:54:50.977Z,99083.13
2022-07-26T01:57:18.757Z,99087.44
2022-07-26T01:59:46.208Z,99083.19
2022-07-26T02:02:13.849Z,99081.41
2022-07-26T02:05:00.058Z,99087.47
2022-07-26T02:07:33.692Z,99094.25
2022-07-26T02:10:01.192Z,99088.28
2022-07-26T02:12:31.067Z,99091.72
2022-07-26T02:14:59.467Z,99092.56
2022-07-26T02:17:27.048Z,99090.03
2022-07-26T02:19:54.567Z,99094.31
2022-07-26T02:22:22.064Z,99099.50
2022-07-26T02:24:50.358Z,99104.66
2022-07-26T02:27:21.212Z,99109.00
2022-07-26T02:29:48.914Z,99108.97
2022-07-26T02:32:16.589Z,99108.94
2022-07-26T02:34:44.099Z,99105.38
2022-07-26T02:37:11.638Z,99105.34
2022-07-26T02:39:39.121Z,99110.44
2022-07-26T02:42:06.662Z,99107.78
2022-07-26T02:44:35.011Z,99102.47
2022-07-26T02:47:03.350Z,99104.09
2022-07-26T02:49:30.925Z,99118.72
2022-07-26T02:51:58.567Z,99130.84
2022-07-26T02:54:41.320Z,99129.81
2022-07-26T02:57:08.872Z,99135.84
2022-07-26T02:59:36.728Z,99138.38
2022-07-26T03:02:04.361Z,99139.97
2022-07-26T03:04:31.993Z,99139.88
2022-07-26T03:06:59.488Z,99137.19
2022-07-26T03:09:27.008Z,99129.28
2022-07-26T03:11:54.539Z,99137.81
2022-07-26T03:14:22.068Z,99136.81
2022-07-26T03:16:49.659Z,99131.44
2022-07-26T03:19:17.143Z,99137.38
2022-07-26T03:21:44.710Z,99140.72
2022-07-26T03:24:12.232Z,99145.78
2022-07-26T03:26:39.928Z,99143.94
2022-07-26T03:29:07.581Z,99144.66
2022-07-26T03:31:36.281Z,99142.00
2022-07-26T03:34:04.140Z,99144.34
2022-07-26T03:36:31.925Z,99146.75
2022-07-26T03:38:59.475Z,99139.56
2022-07-26T03:41:27.047Z,99142.84
2022-07-26T03:43:54.531Z,99148.50
2022-07-26T03:46:22.037Z,99139.44
2022-07-26T03:48:51.949Z,99136.59
2022-07-26T03:51:19.464Z,99132.81
2022-07-26T03:53:47.016Z,99140.44
2022-07-26T03:56:31.706Z,99132.47
2022-07-26T03:59:02.384Z,99130.31
2022-07-26T04:01:30.838Z,99137.88
2022-07-26T04:04:00.739Z,99118.53
2022-07-26T04:06:28.987Z,99139.19
2022-07-26T04:08:56.659Z,99135.41
2022-07-26T04:11:28.694Z,99136.06
2022-07-26T04:13:57.761Z,99134.97
2022-07-26T04:16:25.855Z,99133.84
2022-07-26T04:18:53.774Z,99137.75
2022-07-26T04:21:21.328Z,99127.09
2022-07-26T04:23:51.307Z,99125.09
2022-07-26T04:26:21.451Z,99138.81
2022-07-26T04:28:49.032Z,99131.56
2022-07-26T04:31:16.836Z,99120.97
2022-07-26T04:33:44.576Z,99136.31
2022-07-26T04:36:12.232Z,99137.03
2022-07-26T04:38:39.800Z,99137.72
2022-07-26T04:41:07.463Z,99128.81
2022-07-26T04:43:35.158Z,99127.81
2022-07-26T04:46:02.997Z,99130.09
2022-07-26T04:48:30.601Z,99140.47
2022-07-26T04:50:58.118Z,99143.91
2022-07-26T04:53:25.594Z,99139.22
2022-07-26T04:55:53.290Z,99129.56
2022-07-26T04:58:20.803Z,99138.91
2022-07-26T05:01:08.946Z,99139.38
2022-07-26T05:03:35.827Z,99135.50
2022-07-26T05:06:03.338Z,99136.09
2022-07-26T05:08:31.014Z,99121.84
2022-07-26T05:10:58.572Z,99133.72
2022-07-26T05:13:30.443Z,99130.72
2022-07-26T05:16:00.226Z,99118.28
2022-07-26T05:18:31.454Z,99135.16
2022-07-26T05:20:59.756Z,99130.53
2022-07-26T05:23:27.341Z,99142.38
2022-07-26T05:25:55.512Z,99143.81
2022-07-26T05:28:23.028Z,99145.34
2022-07-26T05:30:50.971Z,99141.75
2022-07-26T05:33:18.763Z,99146.63
2022-07-26T05:35:46.452Z,99147.13
2022-07-26T05:38:13.992Z,99141.38
2022-07-26T05:40:41.497Z,99148.75
2022-07-26T05:43:09.186Z,99145.13
2022-07-26T05:45:36.749Z,99143.03
2022-07-26T05:48:04.520Z,99151.47
2022-07-26T05:50:33.148Z,99151.13
2022-07-26T05:53:00.769Z,99140.31
2022-07-26T05:55:28.806Z,99145.91
2022-07-26T05:57:56.320Z,99148.97
2022-07-26T06:00:23.979Z,99138.44
2022-07-26T06:02:51.530Z,99144.84
2022-07-26T06:05:19.134Z,99140.13
2022-07-26T06:07:46.674Z,99148.59
2022-07-26T06:10:14.175Z,99136.81
2022-07-26T06:12:41.920Z,99139.47
2022-07-26T06:15:15.680Z,99140.75
2022-07-26T06:17:43.619Z,99136.72
2022-07-26T06:20:11.426Z,99129.13
2022-07-26T06:22:38.914Z,99135.03
2022-07-26T06:25:06.956Z,99144.47
2022-07-26T06:27:34.489Z,99136.03
2022-07-26T06:30:02.122Z,99135.47
2022-07-26T06:32:31.723Z,99135.94
2022-07-26T06:34:59.241Z,99133.09
2022-07-26T06:37:27.031Z,99142.09
2022-07-26T06:39:54.527Z,99140.47
2022-07-26T06:42:22.088Z,99140.81
2022-07-26T06:44:49.567Z,99140.88
2022-07-26T06:47:17.135Z,99124.03
2022-07-26T06:49:45.124Z,99132.88
2022-07-26T06:52:12.694Z,99139.19
2022-07-26T06:54:40.215Z,99131.19
2022-07-26T06:57:07.985Z,99135.84
2022-07-26T06:59:35.670Z,99120.56
2022-07-26T07:02:06.065Z,99113.97
2022-07-26T07:04:34.113Z,99115.22
2022-07-26T07:07:06.457Z,99125.25
2022-07-26T07:09:35.306Z,99125.19
2022-07-26T07:12:09.881Z,99117.44
2022-07-26T07:14:39.211Z,99124.25
2022-07-26T07:17:12.997Z,99114.63
2022-07-26T07:19:42.633Z,99119.63
2022-07-26T07:22:12.924Z,99120.41
2022-07-26T07:24:44.345Z,99121.78
2022-07-26T07:27:14.233Z,99114.50
2022-07-26T07:29:43.938Z,99114.00
2022-07-26T07:32:18.046Z,99117.88
2022-07-26T07:34:47.914Z,99115.94
2022-07-26T07:37:19.913Z,99122.22
2022-07-26T07:39:50.747Z,99117.47
2022-07-26T07:42:19.752Z,99122.50
2022-07-26T07:44:47.660Z,99112.59
2022-07-26T07:47:15.318Z,99117.81
2022-07-26T07:49:43.516Z,99118.84
2022-07-26T07:52:11.034Z,99110.94
2022-07-26T07:54:38.644Z,99113.56
2022-07-26T07:57:06.214Z,99113.81
2022-07-26T07:59:33.894Z,99120.25
2022-07-26T08:02:07.412Z,99114.00
2022-07-26T08:04:35.658Z,99119.66
2022-07-26T08:07:03.250Z,99128.28
2022-07-26T08:09:30.851Z,99115.31
2022-07-26T08:12:02.198Z,99114.19
2022-07-26T08:14:29.992Z,99114.88
2022-07-26T08:16:57.660Z,99119.28
2022-07-26T08:19:26.162Z,99118.41
2022-07-26T08:21:58.539Z,99123.19
2022-07-26T08:24:26.580Z,99119.22
2022-07-26T08:26:54.209Z,99122.66
2022-07-26T08:29:21.859Z,99120.28
2022-07-26T08:31:50.709Z,99122.31
2022-07-26T08:34:18.633Z,99129.19
2022-07-26T08:37:14.183Z,99126.34
2022-07-26T08:39:33.742Z,99127.66
2022-07-26T08:42:04.212Z,99129.78
2022-07-26T08:44:31.802Z,99124.88
2022-07-26T08:46:59.383Z,99123.50
2022-07-26T08:49:26.973Z,99125.09
2022-07-26T08:51:54.779Z,99127.63
2022-07-26T08:54:22.404Z,99130.47
2022-07-26T08:56:52.683Z,99129.91
2022-07-26T08:59:23.418Z,99134.00
2022-07-26T09:02:00.442Z,99131.81
2022-07-26T09:04:33.833Z,99127.94
2022-07-26T09:07:07.090Z,99127.94
2022-07-26T09:09:37.595Z,99132.53
2022-07-26T09:12:17.836Z,99137.50
2022-07-26T09:14:48.788Z,99129.63
2022-07-26T09:17:19.147Z,99143.19
2022-07-26T09:20:02.362Z,99145.91
2022-07-26T09:22:30.507Z,99134.44
2022-07-26T09:24:59.247Z,99140.53
2022-07-26T09:27:38.369Z,99139.28
2022-07-26T09:30:08.777Z,99140.63
2022-07-26T09:32:36.989Z,99135.75
2022-07-26T09:35:45.844Z,99139.09
2022-07-26T09:38:01.638Z,99130.28
2022-07-26T09:40:35.298Z,99136.06
2022-07-26T09:43:05.137Z,99120.84
2022-07-26T09:45:35.843Z,99133.06
2022-07-26T09:48:04.110Z,99132.63
2022-07-26T09:50:33.187Z,99128.88
2022-07-26T09:53:09.551Z,99138.06
2022-07-26T09:55:55.439Z,99135.16
2022-07-26T09:58:24.356Z,99144.00
2022-07-26T10:00:52.111Z,99134.91
2022-07-26T10:03:19.751Z,99129.88
2022-07-26T10:05:47.314Z,99122.41
2022-07-26T10:08:15.054Z,99123.91
2022-07-26T10:10:47.864Z,99142.44
2022-07-26T10:13:16.296Z,99133.53
2022-07-26T10:15:49.486Z,99126.84
2022-07-26T10:18:39.156Z,99125.59
2022-07-26T10:21:16.932Z,99133.16
2022-07-26T10:24:25.109Z,99124.06
2022-07-26T10:26:52.598Z,99127.97
2022-07-26T10:29:25.871Z,99128.81
2022-07-26T10:32:04.015Z,99135.03
2022-07-26T10:34:36.402Z,99131.06
2022-07-26T10:37:09.257Z,99123.25
2022-07-26T10:39:40.818Z,99132.16
2022-07-26T10:42:10.563Z,99128.81
2022-07-26T10:44:42.757Z,99128.75
2022-07-26T10:47:15.775Z,99121.97
2022-07-26T10:49:57.607Z,99121.41
2022-07-26T10:52:32.434Z,99112.72
2022-07-26T10:55:04.545Z,99105.13
2022-07-26T10:57:34.306Z,99109.19
2022-07-26T11:00:07.972Z,99113.50
2022-07-26T11:02:36.203Z,99102.34
2022-07-26T11:05:15.702Z,99106.91
2022-07-26T11:08:10.746Z,99098.28
2022-07-26T11:10:41.424Z,99089.53
2022-07-26T11:13:13.356Z,99091.78
2022-07-26T11:15:46.738Z,99093.31
2022-07-26T11:18:21.273Z,99097.19
2022-07-26T11:20:52.465Z,99100.94
2022-07-26T11:23:34.277Z,99092.13
2022-07-26T11:26:05.831Z,99096.63
2022-07-26T11:28:47.230Z,99102.38
2022-07-26T11:31:16.498Z,99094.72
2022-07-26T11:33:50.898Z,99097.25
2022-07-26T11:36:31.534Z,99092.03
2022-07-26T11:39:01.076Z,99075.78
2022-07-26T11:41:34.234Z,99073.31
2022-07-26T11:44:04.233Z,99077.41
2022-07-26T11:46:34.958Z,99074.41
2022-07-26T11:49:02.896Z,99078.25
2022-07-26T11:51:30.395Z,99077.91
2022-07-26T11:54:00.770Z,99078.41
2022-07-26T11:56:30.754Z,99072.41
2022-07-26T11:59:01.342Z,99074.16
2022-07-26T12:01:33.592Z,99063.53
2022-07-26T12:04:01.294Z,99058.78
2022-07-26T12:06:29.173Z,99069.00
2022-07-26T12:08:58.574Z,99067.13
2022-07-26T12:11:38.622Z,99064.56
2022-07-26T12:14:06.296Z,99075.75
2022-07-26T12:16:44.723Z,99072.38
2022-07-26T12:19:20.347Z,99072.47
2022-07-26T12:21:50.711Z,99062.16
2022-07-26T12:24:39.776Z,99077.13
2022-07-26T12:27:21.409Z,99077.69
2022-07-26T12:30:13.397Z,99068.59
2022-07-26T12:32:45.248Z,99069.22
2022-07-26T12:35:17.236Z,99069.19
2022-07-26T12:37:49.714Z,99064.22
2022-07-26T12:40:18.596Z,99074.13
2022-07-26T12:42:53.777Z,99069.00
2022-07-26T12:45:27.812Z,99072.22
2022-07-26T12:47:57.426Z,99070.41
2022-07-26T12:50:27.048Z,99074.16
2022-07-26T12:53:05.805Z,99080.47
2022-07-26T12:55:34.115Z,99070.88
2022-07-26T12:58:02.012Z,99057.41
2022-07-26T13:00:30.077Z,99051.25
2022-07-26T13:02:58.463Z,99056.72
2022-07-26T13:05:26.294Z,99060.63
2022-07-26T13:07:54.392Z,99063.16
2022-07-26T13:10:33.243Z,99064.91
2022-07-26T13:13:01.872Z,99066.94
2022-07-26T13:15:36.229Z,99088.25
2022-07-26T13:18:07.870Z,99076.91
2022-07-26T13:20:38.732Z,99078.94
2022-07-26T13:23:13.132Z,99063.03
2022-07-26T13:25:43.562Z,99066.56
2022-07-26T13:28:11.091Z,99092.00
2022-07-26T13:30:41.181Z,99086.63
2022-07-26T13:33:08.964Z,99099.72
2022-07-26T13:35:39.382Z,99097.28
2022-07-26T13:38:09.209Z,99089.69
2022-07-26T13:40:36.743Z,99091.84
2022-07-26T13:43:05.270Z,99101.50
2022-07-26T13:45:32.825Z,99099.03
2022-07-26T13:48:00.385Z,99109.53
2022-07-26T13:50:28.531Z,99103.28
2022-07-26T13:52:56.741Z,99110.84
2022-07-26T13:55:25.618Z,99099.50
2022-07-26T13:57:56.609Z,99095.03
2022-07-26T14:00:27.195Z,99100.72
2022-07-26T14:02:57.158Z,99090.22
2022-07-26T14:05:26.955Z,99098.59
2022-07-26T14:07:55.137Z,99092.16
2022-07-26T14:10:24.169Z,99097.41
2022-07-26T14:12:52.531Z,99099.13
2022-07-26T14:15:23.104Z,99093.13
2022-07-26T14:17:52.588Z,99103.81
2022-07-26T14:20:21.710Z,99104.22
2022-07-26T14:22:53.694Z,99105.16
2022-07-26T14:25:26.822Z,99102.66
2022-07-26T14:27:55.411Z,99107.25
2022-07-26T14:30:23.220Z,99091.88
2022-07-26T14:32:50.923Z,99096.63
2022-07-26T14:35:18.558Z,99102.16
2022-07-26T14:37:46.551Z,99109.59
2022-07-26T14:40:16.260Z,99117.59
2022-07-26T14:42:45.047Z,99116.16
2022-07-26T14:45:13.858Z,99120.59
2022-07-26T14:47:41.846Z,99122.00
2022-07-26T14:50:10.771Z,99122.06
2022-07-26T14:52:49.675Z,99116.59
2022-07-26T14:55:21.674Z,99104.94
2022-07-26T14:57:52.268Z,99117.69
2022-07-26T15:00:19.994Z,99119.38
2022-07-26T15:02:48.897Z,99128.44
2022-07-26T15:05:17.243Z,99119.97
2022-07-26T15:07:45.496Z,99124.31
2022-07-26T15:10:14.455Z,99119.50
2022-07-26T15:12:42.779Z,99106.72
2022-07-26T15:15:11.280Z,99126.50
2022-07-26T15:17:38.805Z,99124.72
2022-07-26T15:20:07.138Z,99120.03
2022-07-26T15:22:35.200Z,99105.78
2022-07-26T15:25:02.760Z,99111.91
2022-07-26T15:27:30.800Z,99106.56
2022-07-26T15:30:03.513Z,99107.03
2022-07-26T15:32:34.039Z,99110.81
2022-07-26T15:35:02.167Z,99096.47
2022-07-26T15:37:30.999Z,99097.75
2022-07-26T15:39:58.811Z,99110.41
2022-07-26T15:42:30.483Z,99114.13
2022-07-26T15:44:58.579Z,99098.09
2022-07-26T15:47:52.425Z,99114.94
2022-07-26T15:50:16.517Z,99105.72
2022-07-26T15:52:47.022Z,99120.91
2022-07-26T15:55:16.983Z,99127.47
2022-07-26T15:57:46.188Z,99134.88
2022-07-26T16:00:15.527Z,99140.34
2022-07-26T16:02:43.482Z,99131.03
2022-07-26T16:05:11.991Z,99146.22
2022-07-26T16:07:41.762Z,99155.78
2022-07-26T16:10:14.261Z,99166.50
2022-07-26T16:12:42.561Z,99168.38
2022-07-26T16:15:11.868Z,99155.56
2022-07-26T16:17:39.918Z,99162.63
2022-07-26T16:20:08.693Z,99169.00
2022-07-26T16:22:36.258Z,99176.00
2022-07-26T16:25:06.038Z,99177.94
2022-07-26T16:27:33.869Z,99158.84
2022-07-26T16:30:01.339Z,99167.69
2022-07-26T16:32:31.190Z,99170.44
2022-07-26T16:34:58.891Z,99160.16
2022-07-26T16:37:26.364Z,99158.56
2022-07-26T16:39:55.685Z,99150.97
2022-07-26T16:42:23.713Z,99152.81
2022-07-26T16:44:51.724Z,99150.13
2022-07-26T16:47:19.211Z,99152.88
2022-07-26T16:49:46.804Z,99145.13
2022-07-26T16:52:14.607Z,99136.50
2022-07-26T16:54:42.590Z,99145.31
2022-07-26T16:57:10.241Z,99140.16
2022-07-26T16:59:37.837Z,99142.94
2022-07-26T17:02:05.755Z,99147.47
2022-07-26T17:04:35.815Z,99151.09
2022-07-26T17:07:32.353Z,99156.47
2022-07-26T17:09:51.262Z,99169.59
2022-07-26T17:12:19.062Z,99163.72
2022-07-26T17:14:46.723Z,99181.38
2022-07-26T17:17:14.282Z,99176.34
2022-07-26T17:19:41.926Z,99180.13
2022-07-26T17:22:09.433Z,99171.75
2022-07-26T17:24:36.974Z,99183.22
2022-07-26T17:27:04.796Z,99181.56
2022-07-26T17:29:32.324Z,99181.72
2022-07-26T17:32:02.196Z,99177.53
2022-07-26T17:34:29.833Z,99187.06
2022-07-26T17:36:59.176Z,99195.09
2022-07-26T17:39:47.500Z,99198.63
2022-07-26T17:42:15.014Z,99203.00
2022-07-26T17:44:42.535Z,99205.75
2022-07-26T17:47:27.489Z,99211.78
2022-07-26T17:49:57.184Z,99211.16
2022-07-26T17:52:26.585Z,99207.69
2022-07-26T17:54:55.784Z,99208.78
2022-07-26T17:57:23.531Z,99209.75
2022-07-26T17:59:51.109Z,99215.13
2022-07-26T18:02:18.659Z,99213.63
2022-07-26T18:04:46.370Z,99212.91
2022-07-26T18:07:14.512Z,99212.06
2022-07-26T18:09:42.050Z,99214.03
2022-07-26T18:12:09.714Z,99218.53
2022-07-26T18:14:38.598Z,99223.19
2022-07-26T18:17:06.173Z,99224.25
2022-07-26T18:19:33.670Z,99210.47
2022-07-26T18:22:05.618Z,99216.69
2022-07-26T18:24:33.839Z,99217.69
2022-07-26T18:27:01.392Z,99225.66
2022-07-26T18:29:28.957Z,99229.34
2022-07-26T18:32:00.332Z,99222.38
2022-07-26T18:34:28.595Z,99211.19
2022-07-26T18:36:56.082Z,99214.66
2022-07-26T18:39:23.675Z,99217.34
2022-07-26T18:41:51.179Z,99207.88
2022-07-26T18:44:18.849Z,99209.66
2022-07-26T18:46:46.467Z,99219.22
2022-07-26T18:49:19.799Z,99215.88
2022-07-26T18:51:48.949Z,99208.19
2022-07-26T18:54:17.953Z,99211.56
2022-07-26T18:56:45.539Z,99210.66
2022-07-26T18:59:13.578Z,99211.69
2022-07-26T19:01:41.436Z,99212.50
2022-07-26T19:04:09.137Z,99210.00
2022-07-26T19:06:38.374Z,99220.50
2022-07-26T19:09:06.481Z,99226.75
2022-07-26T19:11:37.542Z,99216.53
2022-07-26T19:14:05.537Z,99217.50
2022-07-26T19:16:33.262Z,99226.09
2022-07-26T19:19:00.828Z,99226.25
2022-07-26T19:21:28.964Z,99229.75
2022-07-26T19:23:56.582Z,99231.53
2022-07-26T19:26:27.654Z,99223.88
2022-07-26T19:28:55.241Z,99230.91
2022-07-26T19:31:22.758Z,99240.44
2022-07-26T19:33:50.294Z,99234.31
2022-07-26T19:36:25.218Z,99230.91
2022-07-26T19:38:56.720Z,99229.31
2022-07-26T19:41:24.729Z,99231.78
2022-07-26T19:43:52.198Z,99227.38
2022-07-26T19:46:19.795Z,99216.22
2022-07-26T19:48:47.458Z,99218.00
2022-07-26T19:51:15.012Z,99222.34
2022-07-26T19:53:44.754Z,99221.56
2022-07-26T19:56:12.292Z,99212.03
2022-07-26T19:58:40.021Z,99217.28
2022-07-26T20:01:07.709Z,99210.56
2022-07-26T20:03:35.430Z,99216.75
2022-07-26T20:06:03.060Z,99220.16
2022-07-26T20:08:30.560Z,99217.59
2022-07-26T20:10:58.110Z,99197.84
2022-07-26T20:13:25.636Z,99203.84
2022-07-26T20:15:53.283Z,99210.75
2022-07-26T20:18:24.925Z,99205.44
2022-07-26T20:20:53.585Z,99201.09
2022-07-26T20:23:21.103Z,99193.34
2022-07-26T20:25:49.411Z,99202.91
2022-07-26T20:28:17.322Z,99195.97
2022-07-26T20:30:48.396Z,99196.75
2022-07-26T20:33:19.322Z,99204.66
2022-07-26T20:35:49.322Z,99203.84
2022-07-26T20:38:20.705Z,99198.53
2022-07-26T20:40:48.283Z,99196.13
2022-07-26T20:43:15.786Z,99197.03
2022-07-26T20:45:43.639Z,99195.28
2022-07-26T20:48:11.209Z,99198.88
2022-07-26T20:50:41.238Z,99199.84
2022-07-26T20:53:09.014Z,99199.09
2022-07-26T20:55:36.577Z,99192.25
2022-07-26T20:58:04.498Z,99208.19
2022-07-26T21:00:32.146Z,99197.91
2022-07-26T21:03:00.336Z,99198.03
2022-07-26T21:05:32.361Z,99191.16
2022-07-26T21:08:00.350Z,99199.91
2022-07-26T21:10:29.331Z,99201.06
2022-07-26T21:13:00.286Z,99196.72
2022-07-26T21:15:29.408Z,99202.81
2022-07-26T21:17:57.998Z,99203.63
2022-07-26T21:20:25.626Z,99205.56
2022-07-26T21:22:53.185Z,99213.44
2022-07-26T21:25:20.706Z,99214.28
2022-07-26T21:27:48.322Z,99214.22
2022-07-26T21:30:15.895Z,99216.00
2022-07-26T21:32:46.320Z,99203.03
2022-07-26T21:35:13.846Z,99212.56
2022-07-26T21:37:44.858Z,99213.53
2022-07-26T21:40:14.004Z,99217.88
2022-07-26T21:42:41.474Z,99220.56
2022-07-26T21:45:09.399Z,99220.59
2022-07-26T21:47:36.946Z,99225.84
2022-07-26T21:50:05.112Z,99228.53
2022-07-26T21:52:32.583Z,99217.28
2022-07-26T21:55:00.193Z,99225.16
2022-07-26T21:57:27.682Z,99216.50
2022-07-26T21:59:55.265Z,99216.59
2022-07-26T22:02:23.244Z,99231.44
2022-07-26T22:04:50.912Z,99228.97
2022-07-26T22:07:18.452Z,99225.47
2022-07-26T22:09:46.031Z,99228.28
2022-07-26T22:12:13.507Z,99228.28
2022-07-26T22:14:41.358Z,99231.72
2022-07-26T22:17:08.873Z,99237.84
2022-07-26T22:19:38.650Z,99227.41
2022-07-26T22:22:06.219Z,99224.75
2022-07-26T22:24:33.802Z,99226.38
2022-07-26T22:27:01.363Z,99214.28
2022-07-26T22:29:38.935Z,99222.16
2022-07-26T22:32:07.834Z,99217.88
2022-07-26T22:34:35.415Z,99220.63
2022-07-26T22:37:03.059Z,99220.66
2022-07-26T22:39:30.527Z,99217.38
2022-07-26T22:42:14.874Z,99217.31
2022-07-26T22:44:43.780Z,99222.50
2022-07-26T22:47:11.315Z,99223.47
2022-07-26T22:49:38.854Z,99224.31
2022-07-26T22:52:06.422Z,99214.75
2022-07-26T22:54:33.987Z,99211.41
2022-07-26T22:57:01.439Z,99219.41
2022-07-26T22:59:29.085Z,99217.75
2022-07-26T23:01:59.322Z,99212.53
2022-07-26T23:04:26.956Z,99224.81
2022-07-26T23:06:55.956Z,99210.19
2022-07-26T23:09:26.341Z,99212.91
2022-07-26T23:11:53.978Z,99214.63
2022-07-26T23:14:21.563Z,99213.06
2022-07-26T23:16:49.113Z,99222.69
2022-07-26T23:19:16.990Z,99220.03
2022-07-26T23:21:44.591Z,99227.03
2022-07-26T23:24:12.228Z,99224.41
2022-07-26T23:26:39.721Z,99206.25
2022-07-26T23:29:08.798Z,99213.09
2022-07-26T23:31:38.282Z,99218.38
2022-07-26T23:34:05.967Z,99215.00
2022-07-26T23:36:33.604Z,99209.91
2022-07-26T23:39:01.176Z,99211.56
2022-07-26T23:41:29.033Z,99212.53
2022-07-26T23:43:56.866Z,99212.53
2022-07-26T23:46:25.467Z,99217.09
2022-07-26T23:48:53.728Z,99211.97
2022-07-26T23:51:23.121Z,99217.25
2022-07-26T23:53:53.850Z,99219.88
2022-07-26T23:56:21.479Z,99214.66
2022-07-26T23:58:49.398Z,99214.78
